METAR Data

Data at: 1001 UTC 23 Jul 2019

METAR for:KISP (Islip/Macarthur Arpt, NY, US)
Text:KISP 230956Z 01010KT 10SM BKN005 OVC015 22/21 A2972 RMK AO2 PRESRR SLP062 T02170211 $
Temperature: 21.7°C ( 71°F)
Dewpoint: 21.1°C ( 70°F) [RH = 96%]
Pressure (altimeter):29.72 inches Hg (1006.5 mb) [Sea level pressure: 1006.2 mb]
Winds:from the N (10 degrees) at 12 MPH (10 knots; 5.1 m/s)
Visibility:10 or more sm (16+ km)
Ceiling:500 feet AGL
Clouds: broken clouds at 500 feet AGL, overcast cloud deck at 1500 feet AGL
QC Flag:SOME DATA ABOVE MAY BE INACCURATE!!!"$" is an indication the sensor requires maintenance.